Time;durP1;ratioP1;P1;durP2;ratioP2;P2;SDS_P1;SDS_P2;PMS_P1;PMS_P2;Temp;Humidity;BMP_temperature;BMP_pressure;BME280_temperature;BME280_humidity;BME280_pressure;Samples;Min_cycle;Max_cycle;Signal;HPM_P1;HPM_P2
2022/09/24 00:00:45;;;;;;;32.45;18.10;;;;;;;;;;5073076;28;20048;-75
2022/09/24 00:03:12;;;;;;;27.88;16.75;;;;;;;;;;5071440;28;20053;-76
2022/09/24 00:05:40;;;;;;;29.02;17.38;;;;;;;;;;5069342;28;20535;-76
2022/09/24 00:08:08;;;;;;;28.02;16.33;;;;;;;;;;5063772;28;20050;-75
2022/09/24 00:10:38;;;;;;;25.80;16.35;;;;;;;;;;5077461;28;20583;-76
2022/09/24 00:13:06;;;;;;;27.20;16.65;;;;;;;;;;5065197;28;20049;-75
2022/09/24 00:15:37;;;;;;;28.90;16.17;;;;;;;;;;5069542;28;20048;-75
2022/09/24 00:18:04;;;;;;;29.92;15.10;;;;;;;;;;5069440;28;20131;-75
2022/09/24 00:20:32;;;;;;;29.10;15.43;;;;;;;;;;5073851;28;20049;-75
2022/09/24 00:23:00;;;;;;;26.65;15.70;;;;;;;;;;5072883;28;20069;-76
2022/09/24 00:28:14;;;;;;;25.23;13.52;;;;;;;;;;5063750;28;20056;-75
2022/09/24 00:30:42;;;;;;;21.80;14.70;;;;;;;;;;5076847;28;20049;-76
2022/09/24 00:33:10;;;;;;;24.40;15.07;;;;;;;;;;5069054;28;20557;-76
2022/09/24 00:35:40;;;;;;;23.42;14.40;;;;;;;;;;5075967;28;20052;-76
2022/09/24 00:38:07;;;;;;;24.33;13.98;;;;;;;;;;5073371;28;20115;-76
2022/09/24 00:40:37;;;;;;;23.42;14.43;;;;;;;;;;5076513;28;20103;-76
2022/09/24 00:43:24;;;;;;;27.15;13.43;;;;;;;;;;5072109;28;20091;-76
2022/09/24 00:45:54;;;;;;;25.63;13.75;;;;;;;;;;5069050;28;20115;-76
2022/09/24 00:48:22;;;;;;;21.65;13.18;;;;;;;;;;5064191;28;20147;-75
2022/09/24 00:50:50;;;;;;;21.73;13.75;;;;;;;;;;5075497;28;20101;-76
2022/09/24 00:53:19;;;;;;;23.45;13.43;;;;;;;;;;5079938;28;20149;-76
2022/09/24 00:55:49;;;;;;;22.77;14.30;;;;;;;;;;5071905;28;20053;-76
2022/09/24 00:58:16;;;;;;;26.45;14.40;;;;;;;;;;5070857;28;20052;-76
2022/09/24 01:00:44;;;;;;;23.25;14.88;;;;;;;;;;5078554;28;20107;-76
2022/09/24 01:03:14;;;;;;;24.65;14.77;;;;;;;;;;5070834;28;20049;-76
2022/09/24 01:05:41;;;;;;;22.70;14.70;;;;;;;;;;5072967;28;20045;-76
2022/09/24 01:08:12;;;;;;;25.70;14.85;;;;;;;;;;5071815;28;20852;-76
2022/09/24 01:10:49;;;;;;;25.95;14.18;;;;;;;;;;5077910;28;20045;-76
2022/09/24 01:13:26;;;;;;;27.30;14.88;;;;;;;;;;5072511;28;20586;-76
2022/09/24 01:15:57;;;;;;;24.73;14.60;;;;;;;;;;5072976;28;20079;-76
2022/09/24 01:18:31;;;;;;;27.98;16.30;;;;;;;;;;5068169;28;20095;-76
2022/09/24 01:21:22;;;;;;;26.73;15.02;;;;;;;;;;5068362;28;20056;-77
2022/09/24 01:24:14;;;;;;;29.25;16.88;;;;;;;;;;5060457;28;20056;-76
2022/09/24 01:26:44;;;;;;;28.85;16.95;;;;;;;;;;5074135;28;20064;-76
2022/09/24 01:29:23;;;;;;;31.65;16.70;;;;;;;;;;5071319;28;20052;-76
2022/09/24 01:32:04;;;;;;;38.30;16.05;;;;;;;;;;5070511;28;20053;-77
2022/09/24 01:34:34;;;;;;;30.73;15.82;;;;;;;;;;5069072;28;21420;-76
2022/09/24 01:37:02;;;;;;;33.85;17.17;;;;;;;;;;5079433;28;20053;-77
2022/09/24 01:39:31;;;;;;;38.35;18.88;;;;;;;;;;5070763;28;20053;-76
2022/09/24 01:41:58;;;;;;;39.58;18.10;;;;;;;;;;5065449;28;20107;-76
2022/09/24 01:44:25;;;;;;;35.97;18.77;;;;;;;;;;5071329;28;20929;-77
2022/09/24 01:46:52;;;;;;;34.55;18.25;;;;;;;;;;5071165;28;20062;-76
2022/09/24 01:49:20;;;;;;;32.75;18.30;;;;;;;;;;5073591;28;20053;-76
2022/09/24 01:51:50;;;;;;;34.40;18.05;;;;;;;;;;5072026;28;20057;-76
2022/09/24 01:54:20;;;;;;;36.72;19.02;;;;;;;;;;5079146;28;20083;-76
2022/09/24 01:56:50;;;;;;;40.78;18.63;;;;;;;;;;5073811;28;20048;-76
2022/09/24 01:59:21;;;;;;;37.72;19.13;;;;;;;;;;5070890;28;20057;-77
2022/09/24 02:02:08;;;;;;;37.38;17.63;;;;;;;;;;5067981;28;20052;-76
2022/09/24 02:04:39;;;;;;;36.85;19.48;;;;;;;;;;5073465;28;20124;-76
2022/09/24 02:07:12;;;;;;;35.75;19.60;;;;;;;;;;5068523;28;21128;-77
2022/09/24 02:09:40;;;;;;;41.97;19.52;;;;;;;;;;5059239;28;20053;-77
2022/09/24 02:12:13;;;;;;;41.75;18.80;;;;;;;;;;5066384;28;20488;-76
2022/09/24 02:14:44;;;;;;;37.60;20.48;;;;;;;;;;5070436;28;20053;-77
2022/09/24 02:17:12;;;;;;;39.40;18.75;;;;;;;;;;5072610;28;20103;-76
2022/09/24 02:19:40;;;;;;;42.42;19.92;;;;;;;;;;5069037;28;20057;-76
2022/09/24 02:22:09;;;;;;;33.10;18.33;;;;;;;;;;5063426;28;20049;-76
2022/09/24 02:24:42;;;;;;;33.03;18.63;;;;;;;;;;5075530;28;20053;-76
2022/09/24 02:27:09;;;;;;;39.72;19.17;;;;;;;;;;5062331;28;20118;-77
2022/09/24 02:29:36;;;;;;;36.20;18.30;;;;;;;;;;5071219;28;20049;-77
2022/09/24 02:32:05;;;;;;;32.88;17.77;;;;;;;;;;5079048;28;20141;-76
2022/09/24 02:34:37;;;;;;;37.13;18.33;;;;;;;;;;5078648;28;20052;-77
2022/09/24 02:37:06;;;;;;;37.60;18.20;;;;;;;;;;5075212;28;20053;-76
2022/09/24 02:39:35;;;;;;;32.67;17.30;;;;;;;;;;5073457;28;20132;-76
2022/09/24 02:42:06;;;;;;;34.25;17.27;;;;;;;;;;5082098;28;20060;-76
2022/09/24 02:44:35;;;;;;;31.98;15.43;;;;;;;;;;5080418;28;20049;-76
2022/09/24 02:47:02;;;;;;;36.67;15.85;;;;;;;;;;5066099;28;20053;-76
2022/09/24 02:49:29;;;;;;;35.78;17.38;;;;;;;;;;5075811;28;20102;-76
2022/09/24 02:51:56;;;;;;;28.15;15.48;;;;;;;;;;5078597;28;20118;-76
2022/09/24 02:54:24;;;;;;;30.25;16.05;;;;;;;;;;5073947;28;20049;-77
2022/09/24 02:56:51;;;;;;;35.20;16.40;;;;;;;;;;5076681;28;21246;-77
2022/09/24 02:59:19;;;;;;;33.25;17.02;;;;;;;;;;5076718;28;20044;-77
2022/09/24 03:01:46;;;;;;;34.03;16.52;;;;;;;;;;5066535;28;20954;-76
2022/09/24 03:04:15;;;;;;;32.13;16.23;;;;;;;;;;5069263;28;20057;-77
2022/09/24 03:06:42;;;;;;;30.92;16.25;;;;;;;;;;5080192;28;20049;-76
2022/09/24 03:09:11;;;;;;;38.95;17.15;;;;;;;;;;5076716;28;20045;-76
2022/09/24 03:11:38;;;;;;;29.10;16.83;;;;;;;;;;5091033;28;20101;-77
2022/09/24 03:14:06;;;;;;;32.90;16.27;;;;;;;;;;5068974;28;20052;-77
2022/09/24 03:16:33;;;;;;;32.28;17.80;;;;;;;;;;5066496;28;20057;-76
2022/09/24 03:19:01;;;;;;;29.95;17.05;;;;;;;;;;5073622;28;20052;-77
2022/09/24 03:21:28;;;;;;;33.15;16.85;;;;;;;;;;5065019;28;20123;-76
2022/09/24 03:23:55;;;;;;;32.60;17.20;;;;;;;;;;5084142;28;20057;-77
2022/09/24 03:26:23;;;;;;;45.25;17.38;;;;;;;;;;5073352;28;20092;-77
2022/09/24 03:28:50;;;;;;;34.35;18.13;;;;;;;;;;5070410;28;20056;-77
2022/09/24 03:31:17;;;;;;;31.77;17.27;;;;;;;;;;5073280;28;20068;-76
2022/09/24 03:33:45;;;;;;;34.90;18.15;;;;;;;;;;5066694;28;20049;-77
2022/09/24 03:36:23;;;;;;;34.17;18.73;;;;;;;;;;5067400;28;20056;-77
2022/09/24 03:38:54;;;;;;;35.85;18.70;;;;;;;;;;5071526;28;20470;-76
2022/09/24 03:41:21;;;;;;;32.58;17.85;;;;;;;;;;5073721;28;20975;-77
2022/09/24 03:43:48;;;;;;;37.42;17.67;;;;;;;;;;5067492;28;20111;-77
2022/09/24 03:46:16;;;;;;;37.90;18.23;;;;;;;;;;5071850;28;20148;-77
2022/09/24 03:48:45;;;;;;;33.95;19.27;;;;;;;;;;5067215;28;20053;-76
2022/09/24 03:51:18;;;;;;;35.95;17.48;;;;;;;;;;5068991;28;20049;-77
2022/09/24 03:53:46;;;;;;;35.78;17.98;;;;;;;;;;5075116;28;20522;-77
2022/09/24 03:56:14;;;;;;;38.10;18.25;;;;;;;;;;5069953;28;20049;-77
2022/09/24 03:58:46;;;;;;;37.08;19.02;;;;;;;;;;5073915;28;20126;-77
2022/09/24 04:01:19;;;;;;;37.85;18.08;;;;;;;;;;5069502;28;20052;-77
2022/09/24 04:03:47;;;;;;;31.42;17.35;;;;;;;;;;5074465;28;20049;-77
2022/09/24 04:06:14;;;;;;;34.17;18.15;;;;;;;;;;5060442;28;20494;-76
2022/09/24 04:08:41;;;;;;;32.22;17.42;;;;;;;;;;5063326;28;20049;-77
2022/09/24 04:11:09;;;;;;;33.50;16.95;;;;;;;;;;5078419;28;20128;-76
2022/09/24 04:13:36;;;;;;;30.52;16.85;;;;;;;;;;5077894;28;20041;-77
2022/09/24 04:16:04;;;;;;;38.63;16.95;;;;;;;;;;5076243;28;20080;-76
2022/09/24 04:18:31;;;;;;;31.20;16.73;;;;;;;;;;5075720;28;20061;-77
2022/09/24 04:21:05;;;;;;;33.05;17.27;;;;;;;;;;5068971;28;20550;-77
2022/09/24 04:23:32;;;;;;;29.55;16.17;;;;;;;;;;5071444;28;20057;-77
2022/09/24 04:26:01;;;;;;;29.30;15.73;;;;;;;;;;5072906;28;20048;-76
2022/09/24 04:28:29;;;;;;;35.10;17.10;;;;;;;;;;5068336;28;20423;-77
2022/09/24 04:30:56;;;;;;;32.22;16.52;;;;;;;;;;5078210;28;20890;-76
2022/09/24 04:33:24;;;;;;;30.52;15.27;;;;;;;;;;5065126;28;20767;-77
2022/09/24 04:35:51;;;;;;;29.13;15.57;;;;;;;;;;5072359;28;20738;-77
2022/09/24 04:38:20;;;;;;;31.75;15.88;;;;;;;;;;5068654;28;20056;-76
2022/09/24 04:40:47;;;;;;;34.38;15.75;;;;;;;;;;5074463;28;20168;-77
2022/09/24 04:43:14;;;;;;;31.17;15.43;;;;;;;;;;5081485;28;20137;-77
2022/09/24 04:45:43;;;;;;;31.05;15.82;;;;;;;;;;5071362;28;20103;-77
2022/09/24 04:48:11;;;;;;;43.80;16.42;;;;;;;;;;5078445;28;20045;-76
2022/09/24 04:50:38;;;;;;;27.42;14.93;;;;;;;;;;5067662;28;20103;-76
2022/09/24 04:53:11;;;;;;;27.58;14.35;;;;;;;;;;5073969;28;20610;-77
2022/09/24 04:55:40;;;;;;;31.10;14.68;;;;;;;;;;5071154;28;20469;-77
2022/09/24 04:58:08;;;;;;;33.70;15.23;;;;;;;;;;5074155;28;20079;-77
2022/09/24 05:00:36;;;;;;;31.75;16.13;;;;;;;;;;5071625;28;20049;-77
2022/09/24 05:03:03;;;;;;;38.65;15.50;;;;;;;;;;5074584;28;20894;-77
2022/09/24 05:05:31;;;;;;;30.65;15.43;;;;;;;;;;5067641;28;20053;-77
2022/09/24 05:08:00;;;;;;;33.80;14.85;;;;;;;;;;5074543;28;20060;-77
2022/09/24 05:10:27;;;;;;;35.50;15.98;;;;;;;;;;5069658;28;20976;-77
2022/09/24 05:12:55;;;;;;;30.55;15.48;;;;;;;;;;5070728;28;20102;-77
2022/09/24 05:15:22;;;;;;;31.52;16.13;;;;;;;;;;5081512;28;20060;-77
2022/09/24 05:17:49;;;;;;;26.13;14.48;;;;;;;;;;5070187;28;20128;-77
2022/09/24 05:20:17;;;;;;;37.00;15.25;;;;;;;;;;5080008;28;20914;-76
2022/09/24 05:22:45;;;;;;;26.63;14.95;;;;;;;;;;5073577;28;20084;-77
2022/09/24 05:25:13;;;;;;;29.63;15.60;;;;;;;;;;5068286;28;20033;-77
2022/09/24 05:27:50;;;;;;;27.70;15.05;;;;;;;;;;5063146;28;20050;-76
2022/09/24 05:30:18;;;;;;;37.25;14.43;;;;;;;;;;5072757;28;20143;-77
2022/09/24 05:32:48;;;;;;;27.90;14.80;;;;;;;;;;5072920;28;20424;-76
2022/09/24 05:35:15;;;;;;;37.00;14.32;;;;;;;;;;5076764;28;20048;-76
2022/09/24 05:37:43;;;;;;;28.50;13.07;;;;;;;;;;5075116;28;20044;-76
2022/09/24 05:43:01;;;;;;;32.13;15.48;;;;;;;;;;5071817;28;20099;-77
2022/09/24 05:45:30;;;;;;;33.17;14.80;;;;;;;;;;5068763;28;20060;-77
2022/09/24 05:47:58;;;;;;;28.65;15.27;;;;;;;;;;5065146;28;20053;-77
2022/09/24 05:50:26;;;;;;;26.83;15.23;;;;;;;;;;5074577;28;20049;-76
2022/09/24 05:52:53;;;;;;;33.67;14.57;;;;;;;;;;5069203;28;20057;-76
2022/09/24 05:55:20;;;;;;;25.13;14.52;;;;;;;;;;5079024;28;20098;-76
2022/09/24 05:57:48;;;;;;;27.38;14.90;;;;;;;;;;5067731;28;20091;-76
2022/09/24 06:00:15;;;;;;;27.90;15.00;;;;;;;;;;5072290;28;20048;-76
2022/09/24 06:02:42;;;;;;;25.30;14.73;;;;;;;;;;5076172;28;20060;-76
2022/09/24 06:05:10;;;;;;;33.70;15.50;;;;;;;;;;5074563;28;20103;-77
2022/09/24 06:07:37;;;;;;;26.10;15.55;;;;;;;;;;5074583;28;20049;-77
2022/09/24 06:10:06;;;;;;;34.03;16.25;;;;;;;;;;5070610;28;20076;-77
2022/09/24 06:12:33;;;;;;;28.63;14.63;;;;;;;;;;5063796;28;20045;-77
2022/09/24 06:15:01;;;;;;;28.13;15.45;;;;;;;;;;5077832;28;20780;-77
2022/09/24 06:17:30;;;;;;;28.20;15.27;;;;;;;;;;5068234;28;20971;-76
2022/09/24 06:19:57;;;;;;;35.13;15.38;;;;;;;;;;5069055;28;20499;-76
2022/09/24 06:22:24;;;;;;;26.92;14.88;;;;;;;;;;5069263;28;20086;-77
2022/09/24 06:24:55;;;;;;;30.20;15.60;;;;;;;;;;5071830;28;20076;-76
2022/09/24 06:27:22;;;;;;;30.38;15.50;;;;;;;;;;5069511;28;20100;-76
2022/09/24 06:29:49;;;;;;;30.85;16.40;;;;;;;;;;5072700;28;20114;-77
2022/09/24 06:32:18;;;;;;;27.77;14.32;;;;;;;;;;5067521;28;20049;-77
2022/09/24 06:34:46;;;;;;;27.15;16.08;;;;;;;;;;5073819;28;20044;-77
2022/09/24 06:37:13;;;;;;;32.22;16.63;;;;;;;;;;5070600;28;20096;-77
2022/09/24 06:39:40;;;;;;;32.58;15.50;;;;;;;;;;5071079;28;20046;-76
2022/09/24 06:42:07;;;;;;;36.70;17.33;;;;;;;;;;5070860;28;20051;-77
2022/09/24 06:44:35;;;;;;;30.08;17.00;;;;;;;;;;5074334;28;20052;-76
2022/09/24 06:47:02;;;;;;;32.85;16.83;;;;;;;;;;5072820;28;20049;-77
2022/09/24 06:49:30;;;;;;;28.80;15.55;;;;;;;;;;5073834;28;20059;-77
2022/09/24 06:52:00;;;;;;;34.17;15.32;;;;;;;;;;5067315;28;20505;-77
2022/09/24 06:54:27;;;;;;;34.35;15.30;;;;;;;;;;5072986;28;20144;-76
2022/09/24 06:56:55;;;;;;;30.15;16.13;;;;;;;;;;5073334;28;20053;-76
2022/09/24 06:59:22;;;;;;;29.50;16.83;;;;;;;;;;5073886;28;20055;-77
2022/09/24 07:01:49;;;;;;;35.30;16.45;;;;;;;;;;5077959;28;20040;-76
2022/09/24 07:04:17;;;;;;;32.75;15.68;;;;;;;;;;5071622;28;20079;-76
2022/09/24 07:09:31;;;;;;;36.03;17.23;;;;;;;;;;5067967;28;20053;-77
2022/09/24 07:12:01;;;;;;;38.05;16.73;;;;;;;;;;5066985;28;20049;-77
2022/09/24 07:14:29;;;;;;;38.13;16.10;;;;;;;;;;5068539;28;20053;-76
2022/09/24 07:16:56;;;;;;;33.83;16.77;;;;;;;;;;5078628;28;20053;-77
2022/09/24 07:19:23;;;;;;;38.40;18.10;;;;;;;;;;5072750;28;20049;-76
2022/09/24 07:21:50;;;;;;;39.25;16.95;;;;;;;;;;5066502;28;20048;-77
2022/09/24 07:24:18;;;;;;;41.47;18.08;;;;;;;;;;5069643;28;20049;-76
2022/09/24 07:26:45;;;;;;;45.92;18.90;;;;;;;;;;5071148;28;20103;-77
2022/09/24 07:29:12;;;;;;;36.35;18.10;;;;;;;;;;5069317;28;20095;-76
2022/09/24 07:31:40;;;;;;;39.88;18.95;;;;;;;;;;5070489;28;20136;-77
2022/09/24 07:34:07;;;;;;;37.17;16.92;;;;;;;;;;5068881;28;20053;-76
2022/09/24 07:36:35;;;;;;;54.50;18.70;;;;;;;;;;5080500;28;20045;-76
2022/09/24 07:39:02;;;;;;;43.45;18.23;;;;;;;;;;5060905;28;20037;-76
2022/09/24 07:41:29;;;;;;;35.05;18.33;;;;;;;;;;5063256;28;20049;-76
2022/09/24 07:43:57;;;;;;;41.03;17.40;;;;;;;;;;5065510;28;20066;-76
2022/09/24 07:46:24;;;;;;;45.17;18.55;;;;;;;;;;5067864;28;20044;-78
2022/09/24 07:48:55;;;;;;;44.67;19.58;;;;;;;;;;5076064;28;20892;-76
2022/09/24 07:51:23;;;;;;;40.97;18.95;;;;;;;;;;5083713;28;20115;-76
2022/09/24 07:53:50;;;;;;;41.00;18.13;;;;;;;;;;5066057;28;20064;-76
2022/09/24 07:56:18;;;;;;;45.45;17.70;;;;;;;;;;5065974;28;20151;-76
2022/09/24 07:58:49;;;;;;;56.47;19.15;;;;;;;;;;5067703;28;20061;-78
2022/09/24 08:01:16;;;;;;;45.13;18.13;;;;;;;;;;5065711;28;20152;-77
2022/09/24 08:03:45;;;;;;;53.47;18.10;;;;;;;;;;5063085;28;20946;-76
2022/09/24 08:06:13;;;;;;;49.03;17.70;;;;;;;;;;5069849;28;20057;-76
2022/09/24 08:08:42;;;;;;;45.05;18.83;;;;;;;;;;5081794;28;20906;-77
2022/09/24 08:11:11;;;;;;;43.72;18.77;;;;;;;;;;5076388;28;20053;-76
2022/09/24 08:13:38;;;;;;;41.63;18.17;;;;;;;;;;5073060;28;20049;-77
2022/09/24 08:16:06;;;;;;;40.67;18.75;;;;;;;;;;5073385;28;20059;-76
2022/09/24 08:18:33;;;;;;;38.80;19.05;;;;;;;;;;5069520;28;20042;-77
2022/09/24 08:21:05;;;;;;;46.40;17.65;;;;;;;;;;5077493;28;20069;-77
2022/09/24 08:23:33;;;;;;;35.90;17.27;;;;;;;;;;5088388;28;20049;-76
2022/09/24 08:26:00;;;;;;;40.63;17.80;;;;;;;;;;5069873;28;20609;-76
2022/09/24 08:28:28;;;;;;;43.28;17.98;;;;;;;;;;5067645;28;20083;-76
2022/09/24 08:31:02;;;;;;;55.45;16.98;;;;;;;;;;5069417;28;20053;-75
2022/09/24 08:33:31;;;;;;;43.78;17.75;;;;;;;;;;5069579;28;20053;-76
2022/09/24 08:35:59;;;;;;;47.92;19.55;;;;;;;;;;5072650;28;20056;-76
2022/09/24 08:38:27;;;;;;;41.92;18.00;;;;;;;;;;5067883;28;20140;-75
2022/09/24 08:40:54;;;;;;;42.42;18.15;;;;;;;;;;5072204;28;20054;-76
2022/09/24 08:43:24;;;;;;;48.00;18.15;;;;;;;;;;5078091;28;20056;-76
2022/09/24 08:48:45;;;;;;;49.50;16.88;;;;;;;;;;5070261;28;20053;-75
2022/09/24 08:51:16;;;;;;;39.05;18.52;;;;;;;;;;5067935;28;21260;-76
2022/09/24 08:53:47;;;;;;;42.30;18.50;;;;;;;;;;5067189;28;20053;-76
2022/09/24 08:56:18;;;;;;;41.38;18.27;;;;;;;;;;5066043;28;20054;-75
2022/09/24 08:58:45;;;;;;;40.10;17.52;;;;;;;;;;5085411;28;20062;-76
2022/09/24 09:01:12;;;;;;;40.92;18.02;;;;;;;;;;5078821;28;20052;-77
2022/09/24 09:03:40;;;;;;;33.65;15.77;;;;;;;;;;5071213;28;20118;-75
2022/09/24 09:06:19;;;;;;;39.28;17.17;;;;;;;;;;5072706;28;20863;-76
2022/09/24 09:08:58;;;;;;;38.58;17.38;;;;;;;;;;5061777;28;20044;-76
2022/09/24 09:11:34;;;;;;;45.90;17.90;;;;;;;;;;5067863;28;20131;-76
2022/09/24 09:14:24;;;;;;;39.60;16.83;;;;;;;;;;5076766;28;20079;-75
2022/09/24 09:17:17;;;;;;;36.50;15.60;;;;;;;;;;5072571;28;20064;-76
2022/09/24 09:19:48;;;;;;;47.58;16.73;;;;;;;;;;5072041;28;20045;-75
2022/09/24 09:22:21;;;;;;;35.33;15.60;;;;;;;;;;5070986;28;20079;-76
2022/09/24 09:24:53;;;;;;;32.80;14.80;;;;;;;;;;5067706;28;20057;-76
2022/09/24 09:27:21;;;;;;;27.58;14.82;;;;;;;;;;5064445;28;20147;-76
2022/09/24 09:29:50;;;;;;;30.40;15.13;;;;;;;;;;5074958;28;20078;-76
2022/09/24 09:32:23;;;;;;;35.75;16.27;;;;;;;;;;5075561;28;20826;-76
2022/09/24 09:34:51;;;;;;;;;;;;;;;;;;5077573;28;20060;-76
2022/09/24 09:37:21;;;;;;;25.05;13.93;;;;;;;;;;5069161;28;45235;-76
2022/09/24 09:40:08;;;;;;;30.70;14.88;;;;;;;;;;5081837;28;20053;-76
2022/09/24 09:42:40;;;;;;;33.75;15.23;;;;;;;;;;5080911;28;20049;-76
2022/09/24 09:45:15;;;;;;;28.67;14.43;;;;;;;;;;5073176;28;20091;-76
2022/09/24 09:47:42;;;;;;;33.97;14.35;;;;;;;;;;5071510;28;20059;-76
2022/09/24 09:50:25;;;;;;;28.98;14.00;;;;;;;;;;5074596;28;20041;-76
2022/09/24 09:52:53;;;;;;;31.35;14.10;;;;;;;;;;5069566;28;20095;-76
2022/09/24 09:55:22;;;;;;;29.92;13.43;;;;;;;;;;5072918;28;20050;-75
2022/09/24 09:57:50;;;;;;;29.40;13.32;;;;;;;;;;5077879;28;20055;-76
2022/09/24 10:00:25;;;;;;;28.00;13.85;;;;;;;;;;5073110;28;20048;-76
2022/09/24 10:02:52;;;;;;;31.70;14.85;;;;;;;;;;5070790;28;20542;-77
2022/09/24 10:05:21;;;;;;;38.00;12.30;;;;;;;;;;5075516;28;20063;-76
2022/09/24 10:07:54;;;;;;;35.50;13.60;;;;;;;;;;5068507;28;20057;-76
2022/09/24 10:10:23;;;;;;;24.10;12.50;;;;;;;;;;5066605;28;20880;-76
2022/09/24 10:13:09;;;;;;;27.02;12.38;;;;;;;;;;5075868;28;20075;-77
2022/09/24 10:15:48;;;;;;;21.63;11.10;;;;;;;;;;5070522;28;20515;-76
2022/09/24 10:18:15;;;;;;;25.80;11.77;;;;;;;;;;5063535;28;20060;-76
2022/09/24 10:20:47;;;;;;;22.15;11.45;;;;;;;;;;5078236;28;20055;-77
2022/09/24 10:23:18;;;;;;;22.60;12.07;;;;;;;;;;5082416;28;20048;-76
2022/09/24 10:25:56;;;;;;;20.20;10.38;;;;;;;;;;5071565;28;20053;-76
2022/09/24 10:31:21;;;;;;;24.83;11.85;;;;;;;;;;5066167;28;20965;-76
2022/09/24 10:33:49;;;;;;;28.88;12.32;;;;;;;;;;5076325;28;20050;-76
2022/09/24 10:36:22;;;;;;;25.45;12.15;;;;;;;;;;5074582;28;20053;-76
2022/09/24 10:39:00;;;;;;;31.65;12.40;;;;;;;;;;5073646;28;20144;-76
2022/09/24 10:41:29;;;;;;;21.60;11.20;;;;;;;;;;5079399;28;20853;-76
2022/09/24 10:43:59;;;;;;;22.38;11.25;;;;;;;;;;5084475;28;20049;-76
2022/09/24 10:46:35;;;;;;;20.52;9.63;;;;;;;;;;5074627;28;20055;-76
2022/09/24 10:49:12;;;;;;;25.40;11.80;;;;;;;;;;5073440;28;20423;-76
2022/09/24 10:52:16;;;;;;;21.27;10.55;;;;;;;;;;5071123;28;20059;-77
2022/09/24 10:54:58;;;;;;;21.73;10.65;;;;;;;;;;4997141;28;20059;-76
2022/09/24 10:57:40;;;;;;;28.38;10.52;;;;;;;;;;4990083;28;20053;-76
2022/09/24 11:00:15;;;;;;;21.30;10.95;;;;;;;;;;4998909;28;20054;-76
2022/09/24 11:02:53;;;;;;;23.80;11.15;;;;;;;;;;4994704;28;20061;-77
2022/09/24 11:05:24;;;;;;;18.50;10.52;;;;;;;;;;4993562;28;20138;-76
2022/09/24 11:07:56;;;;;;;19.27;10.45;;;;;;;;;;4995471;28;20924;-76
2022/09/24 11:10:23;;;;;;;26.60;11.88;;;;;;;;;;4993941;28;20050;-76
2022/09/24 11:13:02;;;;;;;18.35;11.20;;;;;;;;;;4991706;28;20051;-76
2022/09/24 11:15:49;;;;;;;18.77;10.40;;;;;;;;;;4991549;28;20134;-76
2022/09/24 11:18:22;;;;;;;23.50;11.30;;;;;;;;;;4999077;28;20065;-76
2022/09/24 11:20:56;;;;;;;24.65;11.23;;;;;;;;;;4978156;28;20137;-77
2022/09/24 11:23:46;;;;;;;25.00;11.30;;;;;;;;;;4995729;28;20082;-75
2022/09/24 11:26:23;;;;;;;23.20;10.77;;;;;;;;;;4988238;28;21135;-76
2022/09/24 11:28:59;;;;;;;20.67;10.73;;;;;;;;;;5033310;28;20053;-76
2022/09/24 11:31:34;;;;;;;26.60;12.00;;;;;;;;;;5082672;28;20159;-76
2022/09/24 11:34:10;;;;;;;30.52;11.85;;;;;;;;;;5073072;28;20107;-76
2022/09/24 11:36:57;;;;;;;26.00;11.88;;;;;;;;;;5069367;28;20130;-76
2022/09/24 11:39:37;;;;;;;28.05;11.65;;;;;;;;;;5027766;28;20052;-75
2022/09/24 11:42:23;;;;;;;27.27;11.68;;;;;;;;;;5064337;28;20051;-77
2022/09/24 11:45:10;;;;;;;24.67;12.18;;;;;;;;;;5067825;28;20188;-76
2022/09/24 11:47:37;;;;;;;21.00;10.77;;;;;;;;;;5093380;28;20048;-76
2022/09/24 11:50:12;;;;;;;20.45;9.85;;;;;;;;;;5074623;28;20140;-76
2022/09/24 11:53:03;;;;;;;20.17;10.32;;;;;;;;;;5071951;28;20056;-75
2022/09/24 11:55:34;;;;;;;17.98;9.20;;;;;;;;;;5058587;28;20059;-76
2022/09/24 11:58:12;;;;;;;15.88;8.80;;;;;;;;;;5068114;28;20522;-76
2022/09/24 12:00:46;;;;;;;20.23;10.02;;;;;;;;;;5075993;28;20059;-75
2022/09/24 12:03:20;;;;;;;20.17;9.07;;;;;;;;;;5077532;28;20141;-75
2022/09/24 12:06:02;;;;;;;18.45;8.07;;;;;;;;;;5075884;28;20168;-76
2022/09/24 12:08:35;;;;;;;13.65;7.38;;;;;;;;;;5080940;28;20057;-76
2022/09/24 12:11:02;;;;;;;11.63;7.45;;;;;;;;;;5073037;28;20053;-75
2022/09/24 12:13:42;;;;;;;16.33;7.60;;;;;;;;;;5067977;28;20534;-76
2022/09/24 12:16:13;;;;;;;10.45;4.00;;;;;;;;;;5068407;28;20081;-75
2022/09/24 12:18:50;;;;;;;6.65;3.22;;;;;;;;;;5076301;28;20087;-76
2022/09/24 12:21:40;;;;;;;5.28;2.85;;;;;;;;;;5068678;28;20060;-76
2022/09/24 12:24:28;;;;;;;5.93;2.58;;;;;;;;;;5063864;28;20136;-77
2022/09/24 12:26:57;;;;;;;5.35;2.78;;;;;;;;;;5074205;28;20059;-76
2022/09/24 12:35:09;;;;;;;11.90;3.25;;;;;;;;;;5074647;28;20503;-78
2022/09/24 12:37:38;;;;;;;11.50;3.70;;;;;;;;;;5068310;28;20053;-77
2022/09/24 12:40:08;;;;;;;13.57;3.20;;;;;;;;;;5081288;28;20136;-76
2022/09/24 12:42:39;;;;;;;5.80;2.42;;;;;;;;;;5074708;28;20139;-77
2022/09/24 12:45:13;;;;;;;7.60;2.72;;;;;;;;;;5071092;28;20053;-78
2022/09/24 12:47:49;;;;;;;7.85;2.60;;;;;;;;;;5086978;28;20132;-76
2022/09/24 12:50:21;;;;;;;8.20;2.35;;;;;;;;;;5078494;28;20049;-76
2022/09/24 12:52:48;;;;;;;5.70;2.40;;;;;;;;;;5079133;28;20135;-76
2022/09/24 12:55:26;;;;;;;12.65;3.03;;;;;;;;;;5080037;28;20041;-77
2022/09/24 12:58:00;;;;;;;10.02;2.30;;;;;;;;;;5077890;28;20052;-78
2022/09/24 13:00:46;;;;;;;12.05;2.38;;;;;;;;;;5072465;28;20079;-77
2022/09/24 13:03:33;;;;;;;11.63;2.00;;;;;;;;;;5085170;28;20908;-77
2022/09/24 13:06:00;;;;;;;6.40;1.83;;;;;;;;;;5073629;28;20060;-77
2022/09/24 13:08:37;;;;;;;6.97;2.08;;;;;;;;;;5072028;28;20056;-77
2022/09/24 13:11:23;;;;;;;8.77;2.40;;;;;;;;;;5070915;28;20052;-78
2022/09/24 13:14:17;;;;;;;10.80;2.67;;;;;;;;;;5066598;28;20049;-77
2022/09/24 13:16:49;;;;;;;6.35;2.60;;;;;;;;;;5069507;28;20063;-76
2022/09/24 13:19:27;;;;;;;7.75;2.50;;;;;;;;;;5078903;28;20067;-77
2022/09/24 13:21:56;;;;;;;15.85;2.55;;;;;;;;;;5074167;28;20049;-77
2022/09/24 13:24:28;;;;;;;13.98;2.50;;;;;;;;;;5068265;28;20076;-77
2022/09/24 13:27:07;;;;;;;5.75;2.30;;;;;;;;;;5071324;28;20056;-77
2022/09/24 13:29:39;;;;;;;14.32;2.65;;;;;;;;;;5075884;28;20144;-76
2022/09/24 13:32:15;;;;;;;6.82;2.25;;;;;;;;;;5071912;28;20152;-77
2022/09/24 13:34:44;;;;;;;10.30;2.33;;;;;;;;;;5073987;28;20143;-77
2022/09/24 13:37:16;;;;;;;9.32;2.30;;;;;;;;;;5078357;28;20048;-77
2022/09/24 13:39:47;;;;;;;10.23;2.10;;;;;;;;;;5078040;28;21324;-77
2022/09/24 13:42:17;;;;;;;10.38;2.22;;;;;;;;;;5068692;28;20053;-77
2022/09/24 13:44:52;;;;;;;14.38;1.88;;;;;;;;;;5071381;28;20057;-77
2022/09/24 13:47:38;;;;;;;5.40;2.40;;;;;;;;;;5078639;28;20080;-76
2022/09/24 13:50:14;;;;;;;5.82;1.85;;;;;;;;;;5078873;28;20053;-77
2022/09/24 13:52:48;;;;;;;5.00;1.85;;;;;;;;;;5081154;28;20570;-76
2022/09/24 13:55:20;;;;;;;9.70;1.83;;;;;;;;;;5085695;28;20047;-77
2022/09/24 13:57:47;;;;;;;7.03;2.22;;;;;;;;;;5075933;28;20057;-78
2022/09/24 14:00:18;;;;;;;12.38;2.22;;;;;;;;;;5070427;28;20080;-77
2022/09/24 14:02:57;;;;;;;6.63;2.28;;;;;;;;;;5073597;28;20514;-77
2022/09/24 14:05:26;;;;;;;12.65;2.42;;;;;;;;;;5078898;28;20144;-77
2022/09/24 14:07:55;;;;;;;13.07;2.60;;;;;;;;;;5086012;28;20656;-76
2022/09/24 14:10:25;;;;;;;13.23;2.75;;;;;;;;;;5077526;28;20195;-77
2022/09/24 14:13:22;;;;;;;11.43;2.40;;;;;;;;;;5061905;28;20081;-76
2022/09/24 14:15:57;;;;;;;4.88;2.30;;;;;;;;;;5058549;28;20049;-78
2022/09/24 14:18:28;;;;;;;8.05;2.58;;;;;;;;;;5080521;28;20052;-76
2022/09/24 14:21:09;;;;;;;5.32;2.53;;;;;;;;;;5080512;28;20053;-77
2022/09/24 14:23:41;;;;;;;9.85;2.60;;;;;;;;;;5075664;28;20056;-77
2022/09/24 14:26:14;;;;;;;8.30;2.67;;;;;;;;;;5076610;28;20408;-77
2022/09/24 14:28:41;;;;;;;10.52;2.95;;;;;;;;;;5070038;28;20107;-77
2022/09/24 14:31:09;;;;;;;8.30;2.60;;;;;;;;;;5070043;28;20053;-77
2022/09/24 14:33:37;;;;;;;10.23;2.90;;;;;;;;;;5073622;28;20052;-77
2022/09/24 14:36:04;;;;;;;12.95;3.08;;;;;;;;;;5076659;28;20051;-76
2022/09/24 14:38:34;;;;;;;6.78;2.90;;;;;;;;;;5083022;28;20059;-76
2022/09/24 14:41:14;;;;;;;11.90;2.75;;;;;;;;;;5077410;28;20130;-77
2022/09/24 14:43:41;;;;;;;12.75;3.17;;;;;;;;;;5075637;28;20053;-76
2022/09/24 14:46:18;;;;;;;10.95;3.53;;;;;;;;;;5074541;28;20148;-77
2022/09/24 14:48:45;;;;;;;10.70;3.30;;;;;;;;;;5074356;28;20048;-77
2022/09/24 14:51:29;;;;;;;9.90;3.50;;;;;;;;;;5064323;28;20045;-77
2022/09/24 14:54:16;;;;;;;15.23;3.60;;;;;;;;;;5073260;28;20514;-77
2022/09/24 14:56:44;;;;;;;9.23;3.20;;;;;;;;;;5070897;28;20049;-78
2022/09/24 14:59:15;;;;;;;12.23;3.45;;;;;;;;;;5077921;28;20824;-77
2022/09/24 15:01:43;;;;;;;13.02;3.67;;;;;;;;;;5076251;28;20049;-77
2022/09/24 15:04:19;;;;;;;11.02;3.88;;;;;;;;;;5080235;28;20060;-76